sensor_id;sensor_type;location;lat;lon;timestamp;pressure;altitude;pressure_sealevel;temperature;humidity
48527;BME280;34317;51.660;5.824;2023-01-29T00:02:11;102999.81;;;3.81;53.76
48527;BME280;34317;51.660;5.824;2023-01-29T00:04:38;102993.66;;;3.80;53.74
48527;BME280;34317;51.660;5.824;2023-01-29T00:07:05;103003.34;;;3.83;53.69
48527;BME280;34317;51.660;5.824;2023-01-29T00:09:32;102991.06;;;3.82;53.78
48527;BME280;34317;51.660;5.824;2023-01-29T00:11:59;102982.38;;;3.83;53.89
48527;BME280;34317;51.660;5.824;2023-01-29T00:14:26;102990.25;;;3.84;53.93
48527;BME280;34317;51.660;5.824;2023-01-29T00:16:53;102984.13;;;3.84;54.00
48527;BME280;34317;51.660;5.824;2023-01-29T00:19:21;102983.25;;;3.83;53.81
48527;BME280;34317;51.660;5.824;2023-01-29T00:21:48;102970.09;;;3.82;53.66
48527;BME280;34317;51.660;5.824;2023-01-29T00:24:15;102969.16;;;3.78;53.63
48527;BME280;34317;51.660;5.824;2023-01-29T00:26:42;102976.13;;;3.76;53.63
48527;BME280;34317;51.660;5.824;2023-01-29T00:29:10;102971.72;;;3.74;53.84
48527;BME280;34317;51.660;5.824;2023-01-29T00:31:37;102965.50;;;3.68;53.67
48527;BME280;34317;51.660;5.824;2023-01-29T00:34:06;102961.94;;;3.65;53.57
48527;BME280;34317;51.660;5.824;2023-01-29T00:36:33;102971.47;;;3.61;53.52
48527;BME280;34317;51.660;5.824;2023-01-29T00:39:00;102965.28;;;3.58;53.59
48527;BME280;34317;51.660;5.824;2023-01-29T00:41:30;102961.78;;;3.56;53.73
48527;BME280;34317;51.660;5.824;2023-01-29T00:44:16;102957.38;;;3.53;53.65
48527;BME280;34317;51.660;5.824;2023-01-29T00:47:03;102945.06;;;3.49;53.71
48527;BME280;34317;51.660;5.824;2023-01-29T00:49:31;102954.69;;;3.48;53.67
48527;BME280;34317;51.660;5.824;2023-01-29T00:51:58;102945.88;;;3.46;53.64
48527;BME280;34317;51.660;5.824;2023-01-29T00:54:43;102945.84;;;3.43;53.63
48527;BME280;34317;51.660;5.824;2023-01-29T00:57:10;102932.72;;;3.42;53.97
48527;BME280;34317;51.660;5.824;2023-01-29T00:59:38;102930.94;;;3.41;53.44
48527;BME280;34317;51.660;5.824;2023-01-29T01:02:05;102930.06;;;3.40;53.69
48527;BME280;34317;51.660;5.824;2023-01-29T01:04:50;102925.66;;;3.38;53.83
48527;BME280;34317;51.660;5.824;2023-01-29T01:07:18;102926.50;;;3.37;53.90
48527;BME280;34317;51.660;5.824;2023-01-29T01:09:45;102920.34;;;3.35;53.95
48527;BME280;34317;51.660;5.824;2023-01-29T01:12:31;102922.94;;;3.33;53.82
48527;BME280;34317;51.660;5.824;2023-01-29T01:14:59;102931.69;;;3.34;54.06
48527;BME280;34317;51.660;5.824;2023-01-29T01:17:26;102929.09;;;3.34;54.11
48527;BME280;34317;51.660;5.824;2023-01-29T01:19:53;102929.09;;;3.34;54.06
48527;BME280;34317;51.660;5.824;2023-01-29T01:22:20;102932.53;;;3.33;54.10
48527;BME280;34317;51.660;5.824;2023-01-29T01:24:48;102928.19;;;3.31;53.91
48527;BME280;34317;51.660;5.824;2023-01-29T01:27:15;102929.00;;;3.30;53.96
48527;BME280;34317;51.660;5.824;2023-01-29T01:29:42;102927.22;;;3.29;54.02
48527;BME280;34317;51.660;5.824;2023-01-29T01:32:09;102931.59;;;3.29;53.84
48527;BME280;34317;51.660;5.824;2023-01-29T01:34:36;102935.97;;;3.28;53.98
48527;BME280;34317;51.660;5.824;2023-01-29T01:37:04;102928.94;;;3.27;54.27
48527;BME280;34317;51.660;5.824;2023-01-29T01:39:31;102935.00;;;3.25;53.88
48527;BME280;34317;51.660;5.824;2023-01-29T01:41:58;102935.88;;;3.25;53.93
48527;BME280;34317;51.660;5.824;2023-01-29T01:44:51;102937.59;;;3.23;54.21
48527;BME280;34317;51.660;5.824;2023-01-29T01:47:23;102935.88;;;3.25;54.18
48527;BME280;34317;51.660;5.824;2023-01-29T01:49:53;102941.13;;;3.25;54.13
48527;BME280;34317;51.660;5.824;2023-01-29T01:52:21;102934.13;;;3.24;54.04
48527;BME280;34317;51.660;5.824;2023-01-29T01:54:49;102938.47;;;3.24;54.31
48527;BME280;34317;51.660;5.824;2023-01-29T01:57:20;102937.59;;;3.23;54.20
48527;BME280;34317;51.660;5.824;2023-01-29T01:59:56;102944.63;;;3.24;54.19
48527;BME280;34317;51.660;5.824;2023-01-29T02:02:24;102940.25;;;3.25;54.28
48527;BME280;34317;51.660;5.824;2023-01-29T02:05:11;102938.47;;;3.22;54.15
48527;BME280;34317;51.660;5.824;2023-01-29T02:07:58;102933.19;;;3.21;54.19
48527;BME280;34317;51.660;5.824;2023-01-29T02:10:45;102935.78;;;3.19;54.15
48527;BME280;34317;51.660;5.824;2023-01-29T02:13:14;102937.50;;;3.17;54.22
48527;BME280;34317;51.660;5.824;2023-01-29T02:15:45;102936.63;;;3.18;54.34
48527;BME280;34317;51.660;5.824;2023-01-29T02:18:17;102941.03;;;3.19;54.43
48527;BME280;34317;51.660;5.824;2023-01-29T02:21:13;102946.25;;;3.19;54.29
48527;BME280;34317;51.660;5.824;2023-01-29T02:27:00;102944.47;;;3.18;54.40
48527;BME280;34317;51.660;5.824;2023-01-29T02:29:36;102949.66;;;3.15;54.20
48527;BME280;34317;51.660;5.824;2023-01-29T02:40:36;102953.09;;;3.11;54.33
48527;BME280;34317;51.660;5.824;2023-01-29T02:48:49;102953.06;;;3.09;54.58
48527;BME280;34317;51.660;5.824;2023-01-29T02:51:35;102954.84;;;3.12;54.31
48527;BME280;34317;51.660;5.824;2023-01-29T02:54:14;102954.91;;;3.15;54.48
48527;BME280;34317;51.660;5.824;2023-01-29T02:56:51;102943.53;;;3.13;54.40
48527;BME280;34317;51.660;5.824;2023-01-29T02:59:31;102937.41;;;3.14;54.36
48527;BME280;34317;51.660;5.824;2023-01-29T03:02:06;102940.03;;;3.14;54.35
48527;BME280;34317;51.660;5.824;2023-01-29T03:04:39;102941.78;;;3.14;54.47
48527;BME280;34317;51.660;5.824;2023-01-29T03:07:15;102944.38;;;3.12;54.29
48527;BME280;34317;51.660;5.824;2023-01-29T03:12:52;102938.25;;;3.11;54.26
48527;BME280;34317;51.660;5.824;2023-01-29T03:15:27;102941.72;;;3.10;54.52
48527;BME280;34317;51.660;5.824;2023-01-29T03:18:17;102940.00;;;3.12;54.58
48527;BME280;34317;51.660;5.824;2023-01-29T03:20:53;102949.63;;;3.14;54.58
48527;BME280;34317;51.660;5.824;2023-01-29T03:23:28;102944.44;;;3.15;54.66
48527;BME280;34317;51.660;5.824;2023-01-29T03:26:17;102942.72;;;3.17;54.80
48527;BME280;34317;51.660;5.824;2023-01-29T03:29:05;102939.25;;;3.18;54.35
48527;BME280;34317;51.660;5.824;2023-01-29T03:31:54;102949.66;;;3.15;54.52
48527;BME280;34317;51.660;5.824;2023-01-29T03:34:40;102942.66;;;3.14;54.69
48527;BME280;34317;51.660;5.824;2023-01-29T03:37:24;102943.56;;;3.16;54.80
48527;BME280;34317;51.660;5.824;2023-01-29T03:39:52;102935.75;;;3.18;54.68
48527;BME280;34317;51.660;5.824;2023-01-29T03:52:52;102927.13;;;3.23;54.88
48527;BME280;34317;51.660;5.824;2023-01-29T03:55:40;102920.19;;;3.25;54.88
48527;BME280;34317;51.660;5.824;2023-01-29T04:01:20;102911.53;;;3.29;54.75
48527;BME280;34317;51.660;5.824;2023-01-29T04:06:23;102902.91;;;3.34;54.88
48527;BME280;34317;51.660;5.824;2023-01-29T04:09:09;102895.03;;;3.34;54.81
48527;BME280;34317;51.660;5.824;2023-01-29T04:12:09;102896.81;;;3.36;54.89
48527;BME280;34317;51.660;5.824;2023-01-29T04:14:41;102901.22;;;3.37;54.88
48527;BME280;34317;51.660;5.824;2023-01-29T04:17:14;102903.00;;;3.40;54.89
48527;BME280;34317;51.660;5.824;2023-01-29T04:19:49;102893.44;;;3.42;54.46
48527;BME280;34317;51.660;5.824;2023-01-29T04:22:26;102890.81;;;3.42;54.71
48527;BME280;34317;51.660;5.824;2023-01-29T04:24:58;102889.09;;;3.44;54.72
48527;BME280;34317;51.660;5.824;2023-01-29T04:30:53;102894.34;;;3.44;54.65
48527;BME280;34317;51.660;5.824;2023-01-29T04:33:33;102902.19;;;3.44;54.98
48527;BME280;34317;51.660;5.824;2023-01-29T04:43:59;102862.09;;;3.48;54.97
48527;BME280;34317;51.660;5.824;2023-01-29T04:46:45;102852.50;;;3.50;55.04
48527;BME280;34317;51.660;5.824;2023-01-29T04:49:28;102839.41;;;3.50;54.75
48527;BME280;34317;51.660;5.824;2023-01-29T04:55:03;102828.09;;;3.51;54.82
48527;BME280;34317;51.660;5.824;2023-01-29T04:57:53;102831.63;;;3.53;55.03
48527;BME280;34317;51.660;5.824;2023-01-29T05:00:27;102840.38;;;3.55;54.93
48527;BME280;34317;51.660;5.824;2023-01-29T05:02:55;102837.78;;;3.57;55.13
48527;BME280;34317;51.660;5.824;2023-01-29T05:05:23;102842.19;;;3.59;55.03
48527;BME280;34317;51.660;5.824;2023-01-29T05:07:50;102835.22;;;3.61;54.85
48527;BME280;34317;51.660;5.824;2023-01-29T05:10:19;102845.78;;;3.64;55.20
48527;BME280;34317;51.660;5.824;2023-01-29T05:12:53;102842.28;;;3.65;54.95
48527;BME280;34317;51.660;5.824;2023-01-29T05:15:29;102837.09;;;3.68;55.05
48527;BME280;34317;51.660;5.824;2023-01-29T05:17:58;102835.38;;;3.70;54.96
48527;BME280;34317;51.660;5.824;2023-01-29T05:20:33;102824.91;;;3.70;55.19
48527;BME280;34317;51.660;5.824;2023-01-29T05:23:01;102816.19;;;3.72;55.09
48527;BME280;34317;51.660;5.824;2023-01-29T05:25:30;102816.19;;;3.72;54.62
48527;BME280;34317;51.660;5.824;2023-01-29T05:27:58;102812.69;;;3.73;54.88
48527;BME280;34317;51.660;5.824;2023-01-29T05:30:39;102825.84;;;3.74;54.93
48527;BME280;34317;51.660;5.824;2023-01-29T05:35:44;102824.97;;;3.77;54.96
48527;BME280;34317;51.660;5.824;2023-01-29T05:38:12;102812.81;;;3.79;55.14
48527;BME280;34317;51.660;5.824;2023-01-29T05:40:40;102821.59;;;3.81;55.22
48527;BME280;34317;51.660;5.824;2023-01-29T05:43:21;102828.56;;;3.82;55.32
48527;BME280;34317;51.660;5.824;2023-01-29T05:45:56;102827.75;;;3.86;55.04
48527;BME280;34317;51.660;5.824;2023-01-29T05:48:25;102828.66;;;3.88;55.06
48527;BME280;34317;51.660;5.824;2023-01-29T05:50:59;102826.09;;;3.91;55.18
48527;BME280;34317;51.660;5.824;2023-01-29T05:53:28;102828.75;;;3.94;55.23
48527;BME280;34317;51.660;5.824;2023-01-29T05:55:55;102826.16;;;3.96;55.19
48527;BME280;34317;51.660;5.824;2023-01-29T05:58:23;102834.03;;;3.97;55.19
48527;BME280;34317;51.660;5.824;2023-01-29T06:00:50;102847.19;;;4.00;55.15
48527;BME280;34317;51.660;5.824;2023-01-29T06:03:17;102845.44;;;4.01;55.23
48527;BME280;34317;51.660;5.824;2023-01-29T06:05:44;102843.72;;;4.01;55.08
48527;BME280;34317;51.660;5.824;2023-01-29T06:08:11;102846.38;;;4.04;55.16
48527;BME280;34317;51.660;5.824;2023-01-29T06:10:39;102848.16;;;4.05;55.03
48527;BME280;34317;51.660;5.824;2023-01-29T06:13:06;102850.81;;;4.08;55.19
48527;BME280;34317;51.660;5.824;2023-01-29T06:15:33;102860.50;;;4.13;55.29
48527;BME280;34317;51.660;5.824;2023-01-29T06:18:00;102862.25;;;4.14;55.23
48527;BME280;34317;51.660;5.824;2023-01-29T06:20:27;102860.53;;;4.16;55.13
48527;BME280;34317;51.660;5.824;2023-01-29T06:22:54;102848.28;;;4.15;55.17
48527;BME280;34317;51.660;5.824;2023-01-29T06:25:21;102838.69;;;4.17;55.22
48527;BME280;34317;51.660;5.824;2023-01-29T06:27:49;102836.09;;;4.20;55.16
48527;BME280;34317;51.660;5.824;2023-01-29T06:30:17;102818.63;;;4.22;55.30
48527;BME280;34317;51.660;5.824;2023-01-29T06:32:44;102824.81;;;4.24;55.33
48527;BME280;34317;51.660;5.824;2023-01-29T06:35:11;102822.22;;;4.27;55.25
48527;BME280;34317;51.660;5.824;2023-01-29T06:37:38;102816.97;;;4.27;54.97
48527;BME280;34317;51.660;5.824;2023-01-29T06:40:06;102822.22;;;4.27;55.08
48527;BME280;34317;51.660;5.824;2023-01-29T06:42:34;102818.75;;;4.28;55.01
48527;BME280;34317;51.660;5.824;2023-01-29T06:45:01;102815.25;;;4.29;55.26
48527;BME280;34317;51.660;5.824;2023-01-29T06:47:29;102820.53;;;4.32;54.97
48527;BME280;34317;51.660;5.824;2023-01-29T06:49:56;102815.34;;;4.35;54.79
48527;BME280;34317;51.660;5.824;2023-01-29T06:52:23;102804.84;;;4.35;55.09
48527;BME280;34317;51.660;5.824;2023-01-29T06:54:54;102809.22;;;4.36;55.34
48527;BME280;34317;51.660;5.824;2023-01-29T06:57:22;102817.13;;;4.39;55.08
48527;BME280;34317;51.660;5.824;2023-01-29T06:59:49;102807.53;;;4.41;55.22
48527;BME280;34317;51.660;5.824;2023-01-29T07:02:16;102803.13;;;4.40;54.97
48527;BME280;34317;51.660;5.824;2023-01-29T07:04:43;102809.28;;;4.42;55.00
48527;BME280;34317;51.660;5.824;2023-01-29T07:07:10;102810.16;;;4.41;55.00
48527;BME280;34317;51.660;5.824;2023-01-29T07:09:40;102815.41;;;4.41;55.09
48527;BME280;34317;51.660;5.824;2023-01-29T07:12:10;102818.94;;;4.43;55.40
48527;BME280;34317;51.660;5.824;2023-01-29T07:14:37;102832.06;;;4.45;55.22
48527;BME280;34317;51.660;5.824;2023-01-29T07:17:04;102822.44;;;4.45;55.36
48527;BME280;34317;51.660;5.824;2023-01-29T07:19:31;102825.97;;;4.47;55.37
48527;BME280;34317;51.660;5.824;2023-01-29T07:21:59;102819.00;;;4.49;55.18
48527;BME280;34317;51.660;5.824;2023-01-29T07:24:28;102819.91;;;4.53;55.37
48527;BME280;34317;51.660;5.824;2023-01-29T07:26:55;102816.44;;;4.54;55.17
48527;BME280;34317;51.660;5.824;2023-01-29T07:29:22;102812.94;;;4.55;55.46
48527;BME280;34317;51.660;5.824;2023-01-29T07:31:50;102807.72;;;4.57;55.08
48527;BME280;34317;51.660;5.824;2023-01-29T07:34:17;102806.88;;;4.58;55.12
48527;BME280;34317;51.660;5.824;2023-01-29T07:36:44;102798.13;;;4.59;55.46
48527;BME280;34317;51.660;5.824;2023-01-29T07:39:11;102801.63;;;4.61;55.27
48527;BME280;34317;51.660;5.824;2023-01-29T07:41:38;102798.16;;;4.62;55.44
48527;BME280;34317;51.660;5.824;2023-01-29T07:44:14;102805.16;;;4.63;55.23
48527;BME280;34317;51.660;5.824;2023-01-29T07:46:42;102792.94;;;4.65;55.21
48527;BME280;34317;51.660;5.824;2023-01-29T07:49:09;102808.66;;;4.65;55.39
48527;BME280;34317;51.660;5.824;2023-01-29T07:51:36;102802.59;;;4.67;55.28
48527;BME280;34317;51.660;5.824;2023-01-29T07:54:03;102802.59;;;4.67;55.39
48527;BME280;34317;51.660;5.824;2023-01-29T07:56:30;102810.44;;;4.66;55.04
48527;BME280;34317;51.660;5.824;2023-01-29T07:58:57;102808.72;;;4.68;55.23
48527;BME280;34317;51.660;5.824;2023-01-29T08:01:25;102803.47;;;4.68;55.11
48527;BME280;34317;51.660;5.824;2023-01-29T08:03:52;102801.72;;;4.68;55.34
48527;BME280;34317;51.660;5.824;2023-01-29T08:06:19;102810.50;;;4.69;55.41
48527;BME280;34317;51.660;5.824;2023-01-29T08:08:46;102807.00;;;4.70;55.42
48527;BME280;34317;51.660;5.824;2023-01-29T08:11:13;102799.13;;;4.70;55.42
48527;BME280;34317;51.660;5.824;2023-01-29T08:13:41;102804.38;;;4.70;55.53
48527;BME280;34317;51.660;5.824;2023-01-29T08:16:08;102798.25;;;4.71;55.34
48527;BME280;34317;51.660;5.824;2023-01-29T08:18:36;102793.00;;;4.71;55.34
48527;BME280;34317;51.660;5.824;2023-01-29T08:21:04;102789.50;;;4.72;55.16
48527;BME280;34317;51.660;5.824;2023-01-29T08:23:31;102791.25;;;4.72;55.14
48527;BME280;34317;51.660;5.824;2023-01-29T08:25:58;102784.25;;;4.72;55.18
48527;BME280;34317;51.660;5.824;2023-01-29T08:28:25;102781.66;;;4.74;55.26
48527;BME280;34317;51.660;5.824;2023-01-29T08:30:52;102775.53;;;4.76;55.42
48527;BME280;34317;51.660;5.824;2023-01-29T08:33:20;102770.31;;;4.76;55.30
48527;BME280;34317;51.660;5.824;2023-01-29T08:35:59;102766.81;;;4.77;55.17
48527;BME280;34317;51.660;5.824;2023-01-29T08:38:26;102766.81;;;4.77;55.22
48527;BME280;34317;51.660;5.824;2023-01-29T08:40:53;102776.44;;;4.77;54.93
48527;BME280;34317;51.660;5.824;2023-01-29T08:43:20;102778.16;;;4.76;55.35
48527;BME280;34317;51.660;5.824;2023-01-29T08:45:47;102779.06;;;4.78;55.18
48527;BME280;34317;51.660;5.824;2023-01-29T08:48:15;102773.00;;;4.81;55.09
48527;BME280;34317;51.660;5.824;2023-01-29T08:50:42;102772.13;;;4.83;55.16
48527;BME280;34317;51.660;5.824;2023-01-29T08:53:09;102761.63;;;4.83;55.32
48527;BME280;34317;51.660;5.824;2023-01-29T08:55:38;102754.63;;;4.85;55.54
48527;BME280;34317;51.660;5.824;2023-01-29T08:58:06;102742.41;;;4.87;55.51
48527;BME280;34317;51.660;5.824;2023-01-29T09:00:33;102744.19;;;4.88;55.24
48527;BME280;34317;51.660;5.824;2023-01-29T09:03:01;102750.31;;;4.91;55.55
48527;BME280;34317;51.660;5.824;2023-01-29T09:05:29;102747.69;;;4.91;55.46
48527;BME280;34317;51.660;5.824;2023-01-29T09:07:56;102753.84;;;4.93;55.74
48527;BME280;34317;51.660;5.824;2023-01-29T09:10:25;102745.13;;;4.94;55.50
48527;BME280;34317;51.660;5.824;2023-01-29T09:12:52;102738.97;;;4.95;55.35
48527;BME280;34317;51.660;5.824;2023-01-29T09:15:19;102730.25;;;4.96;55.34
48527;BME280;34317;51.660;5.824;2023-01-29T09:17:46;102737.25;;;4.97;55.29
48527;BME280;34317;51.660;5.824;2023-01-29T09:20:16;102740.75;;;4.99;55.65
48527;BME280;34317;51.660;5.824;2023-01-29T09:22:43;102737.28;;;5.00;55.48
48527;BME280;34317;51.660;5.824;2023-01-29T09:25:11;102740.78;;;5.02;55.56
48527;BME280;34317;51.660;5.824;2023-01-29T09:27:38;102735.59;;;5.05;55.61
48527;BME280;34317;51.660;5.824;2023-01-29T09:30:06;102736.50;;;5.09;55.48
48527;BME280;34317;51.660;5.824;2023-01-29T09:32:33;102739.09;;;5.10;55.52
48527;BME280;34317;51.660;5.824;2023-01-29T09:35:20;102745.25;;;5.12;55.43
48527;BME280;34317;51.660;5.824;2023-01-29T09:37:48;102746.16;;;5.14;55.46
48527;BME280;34317;51.660;5.824;2023-01-29T09:40:25;102751.44;;;5.17;55.46
48527;BME280;34317;51.660;5.824;2023-01-29T09:43:08;102747.06;;;5.19;55.53
48527;BME280;34317;51.660;5.824;2023-01-29T09:45:40;102746.22;;;5.23;55.25
48527;BME280;34317;51.660;5.824;2023-01-29T09:48:10;102751.50;;;5.26;55.49
48527;BME280;34317;51.660;5.824;2023-01-29T09:50:43;102751.53;;;5.30;55.51
48527;BME280;34317;51.660;5.824;2023-01-29T09:53:20;102746.28;;;5.33;55.37
48527;BME280;34317;51.660;5.824;2023-01-29T09:55:58;102750.69;;;5.34;55.35
48527;BME280;34317;51.660;5.824;2023-01-29T09:58:38;102751.56;;;5.36;55.43
48527;BME280;34317;51.660;5.824;2023-01-29T10:01:19;102746.31;;;5.36;55.12
48527;BME280;34317;51.660;5.824;2023-01-29T10:04:05;102747.19;;;5.36;55.36
48527;BME280;34317;51.660;5.824;2023-01-29T10:21:46;102746.38;;;5.45;55.29
48527;BME280;34317;51.660;5.824;2023-01-29T10:24:38;102743.75;;;5.45;55.11
48527;BME280;34317;51.660;5.824;2023-01-29T10:27:12;102749.91;;;5.47;55.26
48527;BME280;34317;51.660;5.824;2023-01-29T10:29:43;102739.41;;;5.47;55.05
48527;BME280;34317;51.660;5.824;2023-01-29T10:32:17;102749.03;;;5.50;55.11
48527;BME280;34317;51.660;5.824;2023-01-29T10:34:54;102748.19;;;5.52;55.35
48527;BME280;34317;51.660;5.824;2023-01-29T10:37:25;102748.19;;;5.55;55.35
48527;BME280;34317;51.660;5.824;2023-01-29T10:39:56;102751.72;;;5.57;55.38
48527;BME280;34317;51.660;5.824;2023-01-29T10:42:40;102750.88;;;5.60;55.04
48527;BME280;34317;51.660;5.824;2023-01-29T10:45:18;102743.00;;;5.61;55.40
48527;BME280;34317;51.660;5.824;2023-01-29T10:48:07;102733.34;;;5.65;54.95
48527;BME280;34317;51.660;5.824;2023-01-29T10:50:54;102732.53;;;5.68;55.21
48527;BME280;34317;51.660;5.824;2023-01-29T10:53:52;102727.25;;;5.71;55.26
48527;BME280;34317;51.660;5.824;2023-01-29T11:01:59;102710.69;;;5.81;55.38
48527;BME280;34317;51.660;5.824;2023-01-29T11:04:27;102701.03;;;5.83;55.18
48527;BME280;34317;51.660;5.824;2023-01-29T11:06:57;102688.78;;;5.85;55.23
48527;BME280;34317;51.660;5.824;2023-01-29T11:09:27;102686.19;;;5.88;54.88
48527;BME280;34317;51.660;5.824;2023-01-29T11:11:59;102674.78;;;5.92;54.92
48527;BME280;34317;51.660;5.824;2023-01-29T11:14:35;102676.59;;;5.96;55.23
48527;BME280;34317;51.660;5.824;2023-01-29T11:17:14;102674.00;;;6.01;55.04
48527;BME280;34317;51.660;5.824;2023-01-29T11:19:44;102670.50;;;6.05;54.99
48527;BME280;34317;51.660;5.824;2023-01-29T11:22:20;102667.88;;;6.07;54.68
48527;BME280;34317;51.660;5.824;2023-01-29T11:27:48;102657.38;;;6.13;55.00
48527;BME280;34317;51.660;5.824;2023-01-29T11:30:35;102660.88;;;6.18;54.78
48527;BME280;34317;51.660;5.824;2023-01-29T11:35:30;102641.59;;;6.22;54.75
48527;BME280;34317;51.660;5.824;2023-01-29T11:38:08;102643.34;;;6.26;54.90
48527;BME280;34317;51.660;5.824;2023-01-29T11:40:40;102624.94;;;6.31;54.84
48527;BME280;34317;51.660;5.824;2023-01-29T11:45:39;102615.31;;;6.40;54.60
48527;BME280;34317;51.660;5.824;2023-01-29T11:48:13;102603.00;;;6.46;54.60
48527;BME280;34317;51.660;5.824;2023-01-29T11:50:42;102596.00;;;6.51;54.94
48527;BME280;34317;51.660;5.824;2023-01-29T11:53:23;102588.13;;;6.51;54.46
48527;BME280;34317;51.660;5.824;2023-01-29T11:55:52;102592.50;;;6.55;54.73
48527;BME280;34317;51.660;5.824;2023-01-29T11:58:31;102588.97;;;6.59;54.41
48527;BME280;34317;51.660;5.824;2023-01-29T12:00:59;102594.25;;;6.62;54.57
48527;BME280;34317;51.660;5.824;2023-01-29T12:03:40;102590.75;;;6.63;54.34
48527;BME280;34317;51.660;5.824;2023-01-29T12:06:20;102589.00;;;6.65;54.35
48527;BME280;34317;51.660;5.824;2023-01-29T12:09:00;102583.72;;;6.68;54.45
48527;BME280;34317;51.660;5.824;2023-01-29T12:14:01;102562.66;;;6.74;54.40
48527;BME280;34317;51.660;5.824;2023-01-29T12:21:37;102555.63;;;6.79;54.04
48527;BME280;34317;51.660;5.824;2023-01-29T12:27:02;102539.81;;;6.79;54.33
48527;BME280;34317;51.660;5.824;2023-01-29T12:32:11;102534.56;;;6.82;54.39
48527;BME280;34317;51.660;5.824;2023-01-29T12:34:51;102527.53;;;6.85;53.93
48527;BME280;34317;51.660;5.824;2023-01-29T12:37:40;102524.03;;;6.86;53.87
48527;BME280;34317;51.660;5.824;2023-01-29T12:40:15;102517.00;;;6.88;54.20
48527;BME280;34317;51.660;5.824;2023-01-29T12:42:47;102511.72;;;6.88;54.10
48527;BME280;34317;51.660;5.824;2023-01-29T12:45:21;102509.94;;;6.88;53.92
48527;BME280;34317;51.660;5.824;2023-01-29T12:47:59;102503.78;;;6.89;54.01
48527;BME280;34317;51.660;5.824;2023-01-29T12:50:29;102507.31;;;6.90;53.93
48527;BME280;34317;51.660;5.824;2023-01-29T12:53:24;102501.16;;;6.91;53.72
48527;BME280;34317;51.660;5.824;2023-01-29T12:55:52;102498.53;;;6.92;54.00
48527;BME280;34317;51.660;5.824;2023-01-29T12:58:26;102495.91;;;6.94;54.12
48527;BME280;34317;51.660;5.824;2023-01-29T13:00:58;102494.13;;;6.93;53.85
48527;BME280;34317;51.660;5.824;2023-01-29T13:03:34;102487.13;;;6.93;53.69
48527;BME280;34317;51.660;5.824;2023-01-29T13:06:11;102483.59;;;6.93;53.66
48527;BME280;34317;51.660;5.824;2023-01-29T13:08:43;102485.34;;;6.94;53.83
48527;BME280;34317;51.660;5.824;2023-01-29T13:11:21;102478.31;;;6.96;53.67
48527;BME280;34317;51.660;5.824;2023-01-29T13:14:00;102479.19;;;6.95;53.55
48527;BME280;34317;51.660;5.824;2023-01-29T13:16:36;102474.81;;;6.97;53.94
48527;BME280;34317;51.660;5.824;2023-01-29T13:19:13;102466.03;;;6.98;54.04
48527;BME280;34317;51.660;5.824;2023-01-29T13:21:44;102464.25;;;7.00;53.71
48527;BME280;34317;51.660;5.824;2023-01-29T13:24:18;102461.63;;;7.01;53.63
48527;BME280;34317;51.660;5.824;2023-01-29T13:26:47;102453.72;;;7.03;53.73
48527;BME280;34317;51.660;5.824;2023-01-29T13:29:26;102448.44;;;7.03;53.85
48527;BME280;34317;51.660;5.824;2023-01-29T13:31:55;102450.19;;;7.07;53.93
48527;BME280;34317;51.660;5.824;2023-01-29T13:34:27;102446.63;;;7.08;53.70
48527;BME280;34317;51.660;5.824;2023-01-29T13:37:00;102443.13;;;7.09;53.54
48527;BME280;34317;51.660;5.824;2023-01-29T13:39:31;102441.38;;;7.11;53.49
48527;BME280;34317;51.660;5.824;2023-01-29T13:42:02;102437.88;;;7.12;53.38
48527;BME280;34317;51.660;5.824;2023-01-29T13:44:37;102427.31;;;7.12;53.67
48527;BME280;34317;51.660;5.824;2023-01-29T13:47:09;102428.19;;;7.16;53.80
48527;BME280;34317;51.660;5.824;2023-01-29T13:49:40;102430.78;;;7.17;53.75
48527;BME280;34317;51.660;5.824;2023-01-29T13:52:16;102416.75;;;7.18;53.51
48527;BME280;34317;51.660;5.824;2023-01-29T13:55:00;102412.34;;;7.19;53.32
48527;BME280;34317;51.660;5.824;2023-01-29T14:06:02;102416.75;;;7.21;53.68
48527;BME280;34317;51.660;5.824;2023-01-29T14:13:38;102408.84;;;7.20;53.60
48527;BME280;34317;51.660;5.824;2023-01-29T14:18:46;102407.94;;;7.19;53.70
48527;BME280;34317;51.660;5.824;2023-01-29T14:21:21;102416.75;;;7.20;53.65
48527;BME280;34317;51.660;5.824;2023-01-29T14:23:57;102409.72;;;7.20;53.69
48527;BME280;34317;51.660;5.824;2023-01-29T14:26:39;102400.94;;;7.21;53.59
48527;BME280;34317;51.660;5.824;2023-01-29T14:31:52;102364.91;;;7.24;53.33
48527;BME280;34317;51.660;5.824;2023-01-29T14:34:24;102374.53;;;7.23;53.55
48527;BME280;34317;51.660;5.824;2023-01-29T14:36:59;102372.81;;;7.24;53.82
48527;BME280;34317;51.660;5.824;2023-01-29T14:42:00;102376.25;;;7.29;53.67
48527;BME280;34317;51.660;5.824;2023-01-29T14:44:47;102374.50;;;7.31;53.61
48527;BME280;34317;51.660;5.824;2023-01-29T14:49:58;102376.25;;;7.32;53.67
48527;BME280;34317;51.660;5.824;2023-01-29T14:52:41;102372.75;;;7.33;53.56
48527;BME280;34317;51.660;5.824;2023-01-29T14:58:21;102376.25;;;7.32;53.51
48527;BME280;34317;51.660;5.824;2023-01-29T15:00:53;102368.34;;;7.32;53.56
48527;BME280;34317;51.660;5.824;2023-01-29T15:03:38;102363.94;;;7.31;53.53
48527;BME280;34317;51.660;5.824;2023-01-29T15:06:09;102364.84;;;7.31;53.72
48527;BME280;34317;51.660;5.824;2023-01-29T15:08:46;102365.72;;;7.32;53.60
48527;BME280;34317;51.660;5.824;2023-01-29T15:11:31;102358.69;;;7.31;53.65
48527;BME280;34317;51.660;5.824;2023-01-29T15:14:07;102355.19;;;7.32;53.55
48527;BME280;34317;51.660;5.824;2023-01-29T15:16:55;102359.59;;;7.28;53.40
48527;BME280;34317;51.660;5.824;2023-01-29T15:19:27;102345.56;;;7.26;53.29
48527;BME280;34317;51.660;5.824;2023-01-29T15:22:11;102353.47;;;7.25;53.38
48527;BME280;34317;51.660;5.824;2023-01-29T15:24:40;102353.47;;;7.25;53.29
48527;BME280;34317;51.660;5.824;2023-01-29T15:27:26;102357.00;;;7.24;53.65
48527;BME280;34317;51.660;5.824;2023-01-29T15:30:02;102353.50;;;7.21;53.53
48527;BME280;34317;51.660;5.824;2023-01-29T15:32:35;102337.69;;;7.21;53.63